sensor_id;sensor_type;location;lat;lon;timestamp;pressure;altitude;pressure_sealevel;temperature;humidity
61786;BME280;47692;53.714;11.372;2022-07-23T00:02:19;101191.56;;;15.15;80.28
61786;BME280;47692;53.714;11.372;2022-07-23T00:04:44;101193.81;;;15.26;80.20
61786;BME280;47692;53.714;11.372;2022-07-23T00:07:10;101197.84;;;15.11;80.04
61786;BME280;47692;53.714;11.372;2022-07-23T00:09:35;101201.44;;;15.09;80.24
61786;BME280;47692;53.714;11.372;2022-07-23T00:12:00;101201.44;;;15.09;80.33
61786;BME280;47692;53.714;11.372;2022-07-23T00:14:26;101214.50;;;15.12;80.41
61786;BME280;47692;53.714;11.372;2022-07-23T00:16:51;101211.13;;;15.08;80.39
61786;BME280;47692;53.714;11.372;2022-07-23T00:19:16;101206.59;;;15.12;80.17
61786;BME280;47692;53.714;11.372;2022-07-23T00:21:42;101212.91;;;15.06;80.13
61786;BME280;47692;53.714;11.372;2022-07-23T00:24:07;101212.09;;;15.04;80.56
61786;BME280;47692;53.714;11.372;2022-07-23T00:26:32;101208.00;;;14.97;80.75
61786;BME280;47692;53.714;11.372;2022-07-23T00:28:58;101200.88;;;14.99;80.93
61786;BME280;47692;53.714;11.372;2022-07-23T00:31:23;101208.00;;;14.97;80.65
61786;BME280;47692;53.714;11.372;2022-07-23T00:33:48;101198.31;;;14.97;81.12
61786;BME280;47692;53.714;11.372;2022-07-23T00:36:14;101189.59;;;14.97;81.11
61786;BME280;47692;53.714;11.372;2022-07-23T00:38:39;101189.41;;;15.01;80.93
61786;BME280;47692;53.714;11.372;2022-07-23T00:41:04;101192.09;;;15.00;81.15
61786;BME280;47692;53.714;11.372;2022-07-23T00:43:30;101186.97;;;14.97;81.01
61786;BME280;47692;53.714;11.372;2022-07-23T00:45:55;101179.09;;;14.95;81.34
61786;BME280;47692;53.714;11.372;2022-07-23T00:48:20;101189.94;;;14.86;81.65
61786;BME280;47692;53.714;11.372;2022-07-23T00:50:46;101183.72;;;14.89;81.93
61786;BME280;47692;53.714;11.372;2022-07-23T00:53:12;101186.41;;;14.87;82.07
61786;BME280;47692;53.714;11.372;2022-07-23T00:55:38;101185.59;;;14.85;82.32
61786;BME280;47692;53.714;11.372;2022-07-23T00:58:04;101184.75;;;14.83;82.58
61786;BME280;47692;53.714;11.372;2022-07-23T01:00:30;101176.03;;;14.82;82.46
61786;BME280;47692;53.714;11.372;2022-07-23T01:02:56;101174.38;;;14.80;82.40
61786;BME280;47692;53.714;11.372;2022-07-23T01:05:21;101167.38;;;14.79;82.52
61786;BME280;47692;53.714;11.372;2022-07-23T01:07:50;101164.81;;;14.77;82.56
61786;BME280;47692;53.714;11.372;2022-07-23T01:10:16;101160.34;;;14.79;82.91
61786;BME280;47692;53.714;11.372;2022-07-23T01:12:58;101165.97;;;14.68;82.99
61786;BME280;47692;53.714;11.372;2022-07-23T01:15:24;101159.81;;;14.69;83.63
61786;BME280;47692;53.714;11.372;2022-07-23T01:17:50;101161.69;;;14.66;83.45
61786;BME280;47692;53.714;11.372;2022-07-23T01:20:15;101167.78;;;14.66;83.42
61786;BME280;47692;53.714;11.372;2022-07-23T01:22:41;101175.84;;;14.60;83.70
61786;BME280;47692;53.714;11.372;2022-07-23T01:25:06;101176.09;;;14.52;83.93
61786;BME280;47692;53.714;11.372;2022-07-23T01:27:32;101179.50;;;14.54;84.33
61786;BME280;47692;53.714;11.372;2022-07-23T01:29:59;101176.09;;;14.52;84.37
61786;BME280;47692;53.714;11.372;2022-07-23T01:32:25;101172.63;;;14.50;84.35
61786;BME280;47692;53.714;11.372;2022-07-23T01:34:50;101174.56;;;14.45;84.50
61786;BME280;47692;53.714;11.372;2022-07-23T01:37:16;101169.25;;;14.47;84.37
61786;BME280;47692;53.714;11.372;2022-07-23T01:39:41;101173.66;;;14.46;84.20
61786;BME280;47692;53.714;11.372;2022-07-23T01:42:06;101170.41;;;14.38;84.04
61786;BME280;47692;53.714;11.372;2022-07-23T01:44:32;101163.47;;;14.35;84.02
61786;BME280;47692;53.714;11.372;2022-07-23T01:46:57;101163.47;;;14.35;84.25
61786;BME280;47692;53.714;11.372;2022-07-23T01:49:22;101161.63;;;14.39;84.36
61786;BME280;47692;53.714;11.372;2022-07-23T01:51:48;101162.53;;;14.38;84.35
61786;BME280;47692;53.714;11.372;2022-07-23T01:54:30;101151.81;;;14.44;84.57
61786;BME280;47692;53.714;11.372;2022-07-23T01:56:57;101150.28;;;14.37;84.29
61786;BME280;47692;53.714;11.372;2022-07-23T01:59:23;101150.59;;;14.28;84.81
61786;BME280;47692;53.714;11.372;2022-07-23T02:01:49;101143.53;;;14.30;84.71
61786;BME280;47692;53.714;11.372;2022-07-23T02:04:18;101134.84;;;14.28;84.68
61786;BME280;47692;53.714;11.372;2022-07-23T02:06:44;101134.91;;;14.25;84.84
61786;BME280;47692;53.714;11.372;2022-07-23T02:09:09;101130.50;;;14.27;85.08
61786;BME280;47692;53.714;11.372;2022-07-23T02:11:34;101133.06;;;14.28;85.11
61786;BME280;47692;53.714;11.372;2022-07-23T02:14:00;101129.66;;;14.25;85.05
61786;BME280;47692;53.714;11.372;2022-07-23T02:16:25;101130.63;;;14.22;85.21
61786;BME280;47692;53.714;11.372;2022-07-23T02:18:50;101125.38;;;14.22;85.41
61786;BME280;47692;53.714;11.372;2022-07-23T02:21:16;101126.09;;;14.27;85.51
61786;BME280;47692;53.714;11.372;2022-07-23T02:23:41;101125.38;;;14.22;85.31
61786;BME280;47692;53.714;11.372;2022-07-23T02:26:06;101123.56;;;14.24;85.54
61786;BME280;47692;53.714;11.372;2022-07-23T02:28:32;101134.13;;;14.22;85.51
61786;BME280;47692;53.714;11.372;2022-07-23T02:30:57;101142.09;;;14.19;85.38
61786;BME280;47692;53.714;11.372;2022-07-23T02:33:23;101139.22;;;14.27;85.79
61786;BME280;47692;53.714;11.372;2022-07-23T02:35:48;101142.00;;;14.22;85.63
61786;BME280;47692;53.714;11.372;2022-07-23T02:38:14;101140.03;;;14.29;85.30
61786;BME280;47692;53.714;11.372;2022-07-23T02:40:39;101136.44;;;14.32;85.29
61786;BME280;47692;53.714;11.372;2022-07-23T02:43:05;101143.72;;;14.24;85.25
61786;BME280;47692;53.714;11.372;2022-07-23T02:45:30;101135.03;;;14.21;85.62
61786;BME280;47692;53.714;11.372;2022-07-23T02:47:55;101143.75;;;14.22;86.09
61786;BME280;47692;53.714;11.372;2022-07-23T02:50:21;101140.28;;;14.21;86.35
61786;BME280;47692;53.714;11.372;2022-07-23T02:52:46;101135.03;;;14.21;86.32
61786;BME280;47692;53.714;11.372;2022-07-23T02:55:12;101135.69;;;14.28;86.30
61786;BME280;47692;53.714;11.372;2022-07-23T02:57:37;101139.44;;;14.21;86.02
61786;BME280;47692;53.714;11.372;2022-07-23T03:00:04;101142.28;;;14.13;86.22
61786;BME280;47692;53.714;11.372;2022-07-23T03:02:30;101146.69;;;14.13;86.70
61786;BME280;47692;53.714;11.372;2022-07-23T03:04:55;101139.72;;;14.12;86.75
61786;BME280;47692;53.714;11.372;2022-07-23T03:07:20;101137.09;;;14.12;86.75
61786;BME280;47692;53.714;11.372;2022-07-23T03:09:46;101135.31;;;14.12;86.46
61786;BME280;47692;53.714;11.372;2022-07-23T03:12:11;101126.53;;;14.13;86.45
61786;BME280;47692;53.714;11.372;2022-07-23T03:14:36;101130.88;;;14.14;86.42
61786;BME280;47692;53.714;11.372;2022-07-23T03:17:02;101127.63;;;14.06;86.36
61786;BME280;47692;53.714;11.372;2022-07-23T03:19:27;101125.22;;;14.00;86.76
61786;BME280;47692;53.714;11.372;2022-07-23T03:21:52;101124.44;;;13.96;86.83
61786;BME280;47692;53.714;11.372;2022-07-23T03:24:18;101118.50;;;13.89;87.31
61786;BME280;47692;53.714;11.372;2022-07-23T03:26:43;101120.16;;;13.92;87.63
61786;BME280;47692;53.714;11.372;2022-07-23T03:29:09;101123.94;;;13.83;87.85
61786;BME280;47692;53.714;11.372;2022-07-23T03:31:34;101124.81;;;13.82;89.14
61786;BME280;47692;53.714;11.372;2022-07-23T03:34:00;101124.22;;;13.74;89.68
61786;BME280;47692;53.714;11.372;2022-07-23T03:36:26;101115.53;;;13.72;90.70
61786;BME280;47692;53.714;11.372;2022-07-23T03:38:52;101116.47;;;13.69;90.93
61786;BME280;47692;53.714;11.372;2022-07-23T03:41:18;101123.63;;;13.64;90.71
61786;BME280;47692;53.714;11.372;2022-07-23T03:43:44;101127.91;;;13.67;90.92
61786;BME280;47692;53.714;11.372;2022-07-23T03:46:09;101121.06;;;13.63;91.01
61786;BME280;47692;53.714;11.372;2022-07-23T03:48:35;101126.38;;;13.60;90.93
61786;BME280;47692;53.714;11.372;2022-07-23T03:51:00;101128.09;;;13.61;91.01
61786;BME280;47692;53.714;11.372;2022-07-23T03:53:25;101131.63;;;13.60;91.33
61786;BME280;47692;53.714;11.372;2022-07-23T03:55:51;101133.41;;;13.57;92.15
61786;BME280;47692;53.714;11.372;2022-07-23T03:58:16;101136.97;;;13.56;92.71
61786;BME280;47692;53.714;11.372;2022-07-23T04:00:42;101139.44;;;13.61;92.71
61786;BME280;47692;53.714;11.372;2022-07-23T04:03:07;101133.53;;;13.54;93.14
61786;BME280;47692;53.714;11.372;2022-07-23T04:05:32;101126.38;;;13.60;92.77
61786;BME280;47692;53.714;11.372;2022-07-23T04:07:58;101139.31;;;13.66;92.65
61786;BME280;47692;53.714;11.372;2022-07-23T04:10:23;101137.56;;;13.66;92.91
61786;BME280;47692;53.714;11.372;2022-07-23T04:12:48;101139.25;;;13.69;93.08
61786;BME280;47692;53.714;11.372;2022-07-23T04:15:14;101139.38;;;13.64;93.23
61786;BME280;47692;53.714;11.372;2022-07-23T04:17:39;101134.19;;;13.61;93.33
61786;BME280;47692;53.714;11.372;2022-07-23T04:20:05;101143.66;;;13.67;93.64
61786;BME280;47692;53.714;11.372;2022-07-23T04:22:30;101150.53;;;13.71;93.43
61786;BME280;47692;53.714;11.372;2022-07-23T04:24:55;101152.19;;;13.75;93.40
61786;BME280;47692;53.714;11.372;2022-07-23T04:27:21;101152.06;;;13.78;93.39
61786;BME280;47692;53.714;11.372;2022-07-23T04:29:46;101155.53;;;13.80;93.06
61786;BME280;47692;53.714;11.372;2022-07-23T04:32:11;101157.63;;;13.97;93.06
61786;BME280;47692;53.714;11.372;2022-07-23T04:34:37;101163.75;;;13.98;92.81
61786;BME280;47692;53.714;11.372;2022-07-23T04:37:02;101161.84;;;14.03;92.12
61786;BME280;47692;53.714;11.372;2022-07-23T04:39:28;101158.31;;;14.04;92.36
61786;BME280;47692;53.714;11.372;2022-07-23T04:41:53;101159.88;;;14.11;92.58
61786;BME280;47692;53.714;11.372;2022-07-23T04:44:18;101155.09;;;14.24;92.12
61786;BME280;47692;53.714;11.372;2022-07-23T04:46:44;101142.91;;;14.21;91.90
61786;BME280;47692;53.714;11.372;2022-07-23T04:49:09;101146.94;;;14.32;91.64
61786;BME280;47692;53.714;11.372;2022-07-23T04:51:34;101151.75;;;14.47;90.91
61786;BME280;47692;53.714;11.372;2022-07-23T04:54:00;101147.03;;;14.57;90.71
61786;BME280;47692;53.714;11.372;2022-07-23T04:56:25;101140.25;;;14.78;90.48
61786;BME280;47692;53.714;11.372;2022-07-23T04:58:50;101144.88;;;14.97;89.00
61786;BME280;47692;53.714;11.372;2022-07-23T05:01:17;101141.72;;;15.12;87.66
61786;BME280;47692;53.714;11.372;2022-07-23T05:03:42;101154.25;;;15.04;87.77
61786;BME280;47692;53.714;11.372;2022-07-23T05:06:08;101142.06;;;15.01;88.08
61786;BME280;47692;53.714;11.372;2022-07-23T05:08:33;101145.25;;;15.11;86.76
61786;BME280;47692;53.714;11.372;2022-07-23T05:10:58;101138.97;;;15.15;86.58
61786;BME280;47692;53.714;11.372;2022-07-23T05:13:24;101147.44;;;15.24;87.28
61786;BME280;47692;53.714;11.372;2022-07-23T05:15:49;101143.34;;;15.40;86.60
61786;BME280;47692;53.714;11.372;2022-07-23T05:18:14;101137.00;;;15.46;85.42
61786;BME280;47692;53.714;11.372;2022-07-23T05:20:40;101141.31;;;15.48;85.73
61786;BME280;47692;53.714;11.372;2022-07-23T05:23:06;101143.72;;;15.55;85.69
61786;BME280;47692;53.714;11.372;2022-07-23T05:25:32;101149.53;;;15.39;85.46
61786;BME280;47692;53.714;11.372;2022-07-23T05:27:57;101150.47;;;15.38;85.75
61786;BME280;47692;53.714;11.372;2022-07-23T05:30:22;101156.16;;;15.26;86.17
61786;BME280;47692;53.714;11.372;2022-07-23T05:32:48;101154.31;;;15.28;87.29
61786;BME280;47692;53.714;11.372;2022-07-23T05:35:13;101149.16;;;15.25;86.60
61786;BME280;47692;53.714;11.372;2022-07-23T05:37:38;101137.00;;;15.22;86.49
61786;BME280;47692;53.714;11.372;2022-07-23T05:40:06;101154.22;;;15.31;86.07
61786;BME280;47692;53.714;11.372;2022-07-23T05:42:33;101156.91;;;15.29;85.48
61786;BME280;47692;53.714;11.372;2022-07-23T05:44:58;101154.72;;;15.17;85.81
61786;BME280;47692;53.714;11.372;2022-07-23T05:47:24;101160.00;;;15.15;86.91
61786;BME280;47692;53.714;11.372;2022-07-23T05:49:49;101154.44;;;15.25;86.45
61786;BME280;47692;53.714;11.372;2022-07-23T05:52:14;101148.69;;;15.13;85.58
61786;BME280;47692;53.714;11.372;2022-07-23T05:54:40;101155.72;;;15.13;85.15
61786;BME280;47692;53.714;11.372;2022-07-23T05:57:05;101160.00;;;15.15;85.00
61786;BME280;47692;53.714;11.372;2022-07-23T05:59:31;101164.34;;;15.16;84.71
61786;BME280;47692;53.714;11.372;2022-07-23T06:01:56;101156.25;;;15.23;84.12
61786;BME280;47692;53.714;11.372;2022-07-23T06:04:21;101162.59;;;15.17;84.58
61786;BME280;47692;53.714;11.372;2022-07-23T06:06:47;101175.78;;;15.15;84.92
61786;BME280;47692;53.714;11.372;2022-07-23T06:09:12;101166.13;;;15.16;85.10
61786;BME280;47692;53.714;11.372;2022-07-23T06:11:39;101156.59;;;15.13;85.45
61786;BME280;47692;53.714;11.372;2022-07-23T06:14:05;101148.84;;;15.09;85.47
61786;BME280;47692;53.714;11.372;2022-07-23T06:16:31;101156.38;;;15.19;85.83
61786;BME280;47692;53.714;11.372;2022-07-23T06:18:56;101159.00;;;15.19;86.45
61786;BME280;47692;53.714;11.372;2022-07-23T06:21:21;101154.22;;;15.31;86.14
61786;BME280;47692;53.714;11.372;2022-07-23T06:23:47;101155.53;;;15.43;86.06
61786;BME280;47692;53.714;11.372;2022-07-23T06:26:12;101156.34;;;15.45;85.19
61786;BME280;47692;53.714;11.372;2022-07-23T06:28:37;101148.59;;;15.40;84.68
61786;BME280;47692;53.714;11.372;2022-07-23T06:31:03;101154.81;;;15.39;84.91
61786;BME280;47692;53.714;11.372;2022-07-23T06:33:28;101144.97;;;15.44;85.00
61786;BME280;47692;53.714;11.372;2022-07-23T06:35:53;101145.31;;;15.59;87.10
61786;BME280;47692;53.714;11.372;2022-07-23T06:38:19;101145.75;;;15.70;87.33
61786;BME280;47692;53.714;11.372;2022-07-23T06:40:44;101146.56;;;15.72;87.52
61786;BME280;47692;53.714;11.372;2022-07-23T06:43:10;101148.00;;;15.81;88.05
61786;BME280;47692;53.714;11.372;2022-07-23T06:45:35;101148.88;;;15.81;85.96
61786;BME280;47692;53.714;11.372;2022-07-23T06:48:01;101165.31;;;15.88;87.33
61786;BME280;47692;53.714;11.372;2022-07-23T06:50:27;101181.72;;;15.95;88.13
61786;BME280;47692;53.714;11.372;2022-07-23T06:52:53;101179.91;;;15.97;87.80
61786;BME280;47692;53.714;11.372;2022-07-23T06:55:19;101167.19;;;16.08;87.13
61786;BME280;47692;53.714;11.372;2022-07-23T06:57:44;101164.31;;;16.14;87.55
61786;BME280;47692;53.714;11.372;2022-07-23T07:00:10;101163.06;;;16.01;85.51
61786;BME280;47692;53.714;11.372;2022-07-23T07:02:36;101160.66;;;15.95;86.11
61786;BME280;47692;53.714;11.372;2022-07-23T07:05:02;101158.47;;;15.84;84.61
61786;BME280;47692;53.714;11.372;2022-07-23T07:07:27;101157.59;;;15.83;85.48
61786;BME280;47692;53.714;11.372;2022-07-23T07:09:53;101156.28;;;15.95;85.87
61786;BME280;47692;53.714;11.372;2022-07-23T07:12:18;101158.13;;;16.15;83.43
61786;BME280;47692;53.714;11.372;2022-07-23T07:14:43;101159.47;;;16.26;82.49
61786;BME280;47692;53.714;11.372;2022-07-23T07:17:09;101154.53;;;16.40;82.31
61786;BME280;47692;53.714;11.372;2022-07-23T07:19:36;101157.50;;;16.31;81.58
61786;BME280;47692;53.714;11.372;2022-07-23T07:22:01;101152.63;;;16.22;82.14
61786;BME280;47692;53.714;11.372;2022-07-23T07:24:26;101163.25;;;16.19;83.27
61786;BME280;47692;53.714;11.372;2022-07-23T07:26:52;101159.34;;;16.07;83.25
61786;BME280;47692;53.714;11.372;2022-07-23T07:29:17;101173.44;;;16.06;83.03
61786;BME280;47692;53.714;11.372;2022-07-23T07:31:42;101170.44;;;15.91;82.83
61786;BME280;47692;53.714;11.372;2022-07-23T07:34:08;101168.44;;;15.74;82.68
61786;BME280;47692;53.714;11.372;2022-07-23T07:36:33;101167.22;;;15.85;83.54
61786;BME280;47692;53.714;11.372;2022-07-23T07:39:00;101170.66;;;16.33;81.98
61786;BME280;47692;53.714;11.372;2022-07-23T07:41:25;101167.41;;;16.91;79.29
61786;BME280;47692;53.714;11.372;2022-07-23T07:43:51;101168.88;;;17.39;76.47
61786;BME280;47692;53.714;11.372;2022-07-23T07:46:17;101169.38;;;17.48;75.57
61786;BME280;47692;53.714;11.372;2022-07-23T07:48:42;101168.00;;;17.79;73.85
61786;BME280;47692;53.714;11.372;2022-07-23T07:51:07;101169.69;;;18.00;73.84
61786;BME280;47692;53.714;11.372;2022-07-23T07:53:33;101167.69;;;18.05;72.57
61786;BME280;47692;53.714;11.372;2022-07-23T07:55:58;101163.50;;;17.81;73.06
61786;BME280;47692;53.714;11.372;2022-07-23T07:58:23;101166.63;;;17.89;73.08
61786;BME280;47692;53.714;11.372;2022-07-23T08:00:49;101153.53;;;18.06;73.06
61786;BME280;47692;53.714;11.372;2022-07-23T08:03:14;101159.94;;;18.20;71.67
61786;BME280;47692;53.714;11.372;2022-07-23T08:05:40;101168.41;;;18.09;71.64
61786;BME280;47692;53.714;11.372;2022-07-23T08:08:05;101170.63;;;18.36;70.70
61786;BME280;47692;53.714;11.372;2022-07-23T08:10:31;101166.22;;;18.36;69.39
61786;BME280;47692;53.714;11.372;2022-07-23T08:12:58;101157.66;;;17.93;70.02
61786;BME280;47692;53.714;11.372;2022-07-23T08:15:25;101159.06;;;17.81;70.43
61786;BME280;47692;53.714;11.372;2022-07-23T08:17:51;101167.78;;;17.83;69.79
61786;BME280;47692;53.714;11.372;2022-07-23T08:20:19;101168.22;;;17.93;69.51
61786;BME280;47692;53.714;11.372;2022-07-23T08:25:12;101165.50;;;17.75;69.92
61786;BME280;47692;53.714;11.372;2022-07-23T08:27:38;101163.91;;;17.52;70.69
61786;BME280;47692;53.714;11.372;2022-07-23T08:30:03;101170.56;;;17.40;71.65
61786;BME280;47692;53.714;11.372;2022-07-23T08:32:29;101165.50;;;17.36;72.18
61786;BME280;47692;53.714;11.372;2022-07-23T08:34:54;101160.44;;;17.31;72.52
61786;BME280;47692;53.714;11.372;2022-07-23T08:37:20;101162.69;;;17.20;73.59
61786;BME280;47692;53.714;11.372;2022-07-23T08:39:45;101171.38;;;17.22;73.68
61786;BME280;47692;53.714;11.372;2022-07-23T08:42:11;101176.00;;;16.96;74.42
61786;BME280;47692;53.714;11.372;2022-07-23T08:44:38;101179.81;;;16.67;77.16
61786;BME280;47692;53.714;11.372;2022-07-23T08:47:04;101186.31;;;16.58;78.46
61786;BME280;47692;53.714;11.372;2022-07-23T08:49:30;101188.41;;;16.50;78.32
61786;BME280;47692;53.714;11.372;2022-07-23T08:51:55;101177.06;;;16.90;78.29
61786;BME280;47692;53.714;11.372;2022-07-23T08:54:21;101173.78;;;17.87;75.54
61786;BME280;47692;53.714;11.372;2022-07-23T08:56:48;101176.63;;;18.39;70.30
61786;BME280;47692;53.714;11.372;2022-07-23T08:59:13;101188.47;;;18.50;69.99
61786;BME280;47692;53.714;11.372;2022-07-23T09:01:39;101182.16;;;18.52;70.13
61786;BME280;47692;53.714;11.372;2022-07-23T09:04:04;101186.31;;;18.58;70.62
61786;BME280;47692;53.714;11.372;2022-07-23T09:06:30;101195.25;;;18.19;69.68
61786;BME280;47692;53.714;11.372;2022-07-23T09:08:55;101182.53;;;17.68;71.24
61786;BME280;47692;53.714;11.372;2022-07-23T09:11:21;101181.25;;;17.58;72.33
61786;BME280;47692;53.714;11.372;2022-07-23T09:13:52;101175.69;;;17.64;73.43
61786;BME280;47692;53.714;11.372;2022-07-23T09:16:29;101180.00;;;17.86;72.67
61786;BME280;47692;53.714;11.372;2022-07-23T09:19:00;101184.44;;;17.85;71.43
61786;BME280;47692;53.714;11.372;2022-07-23T09:21:31;101184.63;;;17.81;71.43
61786;BME280;47692;53.714;11.372;2022-07-23T09:24:05;101182.34;;;17.92;71.50
61786;BME280;47692;53.714;11.372;2022-07-23T09:26:37;101188.38;;;18.15;71.04
61786;BME280;47692;53.714;11.372;2022-07-23T09:31:33;101191.81;;;19.08;66.62
61786;BME280;47692;53.714;11.372;2022-07-23T09:36:55;101189.78;;;18.95;65.58
61786;BME280;47692;53.714;11.372;2022-07-23T09:39:28;101180.06;;;18.41;67.81
61786;BME280;47692;53.714;11.372;2022-07-23T09:41:54;101187.09;;;18.04;69.10
61786;BME280;47692;53.714;11.372;2022-07-23T09:44:20;101193.91;;;17.89;68.93
61786;BME280;47692;53.714;11.372;2022-07-23T09:46:50;101194.19;;;17.64;70.41
61786;BME280;47692;53.714;11.372;2022-07-23T09:49:22;101190.91;;;17.38;71.92
61786;BME280;47692;53.714;11.372;2022-07-23T09:51:56;101190.09;;;17.36;72.45
61786;BME280;47692;53.714;11.372;2022-07-23T09:54:29;101195.06;;;17.23;73.83
61786;BME280;47692;53.714;11.372;2022-07-23T09:56:57;101198.47;;;17.46;73.24
61786;BME280;47692;53.714;11.372;2022-07-23T09:59:29;101197.59;;;17.66;72.79
61786;BME280;47692;53.714;11.372;2022-07-23T10:01:57;101196.91;;;17.82;72.30
61786;BME280;47692;53.714;11.372;2022-07-23T10:04:25;101213.75;;;18.19;70.10
61786;BME280;47692;53.714;11.372;2022-07-23T10:06:53;101199.66;;;18.18;69.41
61786;BME280;47692;53.714;11.372;2022-07-23T10:09:26;101193.78;;;18.31;69.40
61786;BME280;47692;53.714;11.372;2022-07-23T10:11:56;101203.81;;;18.24;69.53
61786;BME280;47692;53.714;11.372;2022-07-23T10:14:26;101205.38;;;18.28;69.34
61786;BME280;47692;53.714;11.372;2022-07-23T10:16:52;101206.91;;;18.32;69.81
61786;BME280;47692;53.714;11.372;2022-07-23T10:19:19;101194.44;;;18.72;68.94
61786;BME280;47692;53.714;11.372;2022-07-23T10:21:50;101193.41;;;18.75;68.58
61786;BME280;47692;53.714;11.372;2022-07-23T10:41:00;101212.72;;;18.40;68.55
61786;BME280;47692;53.714;11.372;2022-07-23T10:43:26;101203.81;;;18.24;68.75
61786;BME280;47692;53.714;11.372;2022-07-23T10:45:53;101210.94;;;18.22;69.25
61786;BME280;47692;53.714;11.372;2022-07-23T10:48:19;101216.06;;;18.25;69.17
61786;BME280;47692;53.714;11.372;2022-07-23T10:51:14;101213.06;;;18.14;69.50
61786;BME280;47692;53.714;11.372;2022-07-23T10:56:15;101215.09;;;18.64;68.61
61786;BME280;47692;53.714;11.372;2022-07-23T10:58:48;101208.53;;;18.91;68.26
61786;BME280;47692;53.714;11.372;2022-07-23T11:01:31;101207.69;;;19.25;66.27
61786;BME280;47692;53.714;11.372;2022-07-23T11:03:57;101211.88;;;19.12;66.61
61786;BME280;47692;53.714;11.372;2022-07-23T11:06:24;101214.78;;;19.25;67.24
61786;BME280;47692;53.714;11.372;2022-07-23T11:15:06;101213.59;;;18.58;68.61
61786;BME280;47692;53.714;11.372;2022-07-23T11:27:47;101205.59;;;18.97;69.28
61786;BME280;47692;53.714;11.372;2022-07-23T11:32:54;101196.16;;;19.44;66.56
61786;BME280;47692;53.714;11.372;2022-07-23T11:35:24;101195.59;;;19.88;66.52
61786;BME280;47692;53.714;11.372;2022-07-23T11:37:52;101187.41;;;20.25;63.69
61786;BME280;47692;53.714;11.372;2022-07-23T11:40:25;101196.41;;;20.85;61.65
61786;BME280;47692;53.714;11.372;2022-07-23T11:42:58;101186.28;;;20.91;61.46
61786;BME280;47692;53.714;11.372;2022-07-23T11:45:30;101194.09;;;21.09;59.90
61786;BME280;47692;53.714;11.372;2022-07-23T11:47:55;101186.50;;;21.03;60.27
61786;BME280;47692;53.714;11.372;2022-07-23T11:50:23;101183.97;;;21.15;60.09
61786;BME280;47692;53.714;11.372;2022-07-23T11:52:48;101195.09;;;21.22;59.45
61786;BME280;47692;53.714;11.372;2022-07-23T11:55:14;101197.38;;;20.67;59.21
61786;BME280;47692;53.714;11.372;2022-07-23T11:57:41;101202.97;;;20.31;60.33
61786;BME280;47692;53.714;11.372;2022-07-23T12:00:09;101198.31;;;20.02;60.95
61786;BME280;47692;53.714;11.372;2022-07-23T12:02:37;101204.56;;;19.52;61.77
61786;BME280;47692;53.714;11.372;2022-07-23T12:05:03;101212.50;;;19.52;63.69
61786;BME280;47692;53.714;11.372;2022-07-23T12:07:40;101219.13;;;19.43;63.13
61786;BME280;47692;53.714;11.372;2022-07-23T12:10:15;101219.97;;;19.44;63.86
61786;BME280;47692;53.714;11.372;2022-07-23T12:12:43;101223.56;;;19.25;64.68
61786;BME280;47692;53.714;11.372;2022-07-23T12:15:11;101228.06;;;19.05;65.69
61786;BME280;47692;53.714;11.372;2022-07-23T12:17:39;101234.69;;;18.97;65.98
61786;BME280;47692;53.714;11.372;2022-07-23T12:20:06;101232.28;;;18.73;66.38
61786;BME280;47692;53.714;11.372;2022-07-23T12:22:38;101230.34;;;18.59;67.31
61786;BME280;47692;53.714;11.372;2022-07-23T12:25:07;101229.19;;;18.46;66.32
61786;BME280;47692;53.714;11.372;2022-07-23T12:27:33;101222.06;;;18.48;64.01
61786;BME280;47692;53.714;11.372;2022-07-23T12:30:14;101218.34;;;18.52;63.91
61786;BME280;47692;53.714;11.372;2022-07-23T12:32:43;101236.56;;;18.76;64.87
61786;BME280;47692;53.714;11.372;2022-07-23T12:35:09;101227.41;;;18.83;64.62
61786;BME280;47692;53.714;11.372;2022-07-23T12:37:39;101234.56;;;18.81;64.86
61786;BME280;47692;53.714;11.372;2022-07-23T12:40:21;101228.25;;;19.02;65.03
61786;BME280;47692;53.714;11.372;2022-07-23T12:42:51;101227.06;;;19.08;64.73
61786;BME280;47692;53.714;11.372;2022-07-23T12:45:17;101229.84;;;19.58;65.12
61786;BME280;47692;53.714;11.372;2022-07-23T12:48:05;101223.88;;;19.70;63.00
61786;BME280;47692;53.714;11.372;2022-07-23T12:50:36;101214.94;;;20.22;62.10
61786;BME280;47692;53.714;11.372;2022-07-23T12:53:10;101224.66;;;20.54;60.78
61786;BME280;47692;53.714;11.372;2022-07-23T12:55:37;101204.88;;;20.91;59.44
61786;BME280;47692;53.714;11.372;2022-07-23T12:58:05;101214.78;;;21.18;59.06
61786;BME280;47692;53.714;11.372;2022-07-23T13:00:32;101210.75;;;20.96;57.46
61786;BME280;47692;53.714;11.372;2022-07-23T13:02:57;101202.59;;;20.99;59.12
61786;BME280;47692;53.714;11.372;2022-07-23T13:05:23;101210.81;;;21.25;58.89
61786;BME280;47692;53.714;11.372;2022-07-23T13:07:48;101203.19;;;21.05;57.93
61786;BME280;47692;53.714;11.372;2022-07-23T13:10:14;101222.09;;;20.68;59.57
61786;BME280;47692;53.714;11.372;2022-07-23T13:12:39;101218.66;;;20.50;59.77
61786;BME280;47692;53.714;11.372;2022-07-23T13:15:05;101226.72;;;20.32;61.14
61786;BME280;47692;53.714;11.372;2022-07-23T13:17:31;101225.34;;;20.41;61.28
61786;BME280;47692;53.714;11.372;2022-07-23T13:19:56;101221.75;;;20.58;60.33
61786;BME280;47692;53.714;11.372;2022-07-23T13:22:22;101224.66;;;20.38;60.37
61786;BME280;47692;53.714;11.372;2022-07-23T13:24:47;101219.53;;;20.50;59.83